Time,TemperatureF,DewpointF,PressureIn,WindDirection,WindDirectionDegrees,WindSpeedMPH,WindSpeedGustMPH,Humidity,HourlyPrecipIn,Conditions,Clouds,dailyrainin,SoftwareType,DateUTC
2013-10-06 00:12:00,27.0,23.0,30.45,SW,217,0.0,1.0,86,0.00,,,0.06,,2013-10-06 06:12:00,
2013-10-06 00:21:00,27.0,24.0,30.45,SW,217,0.0,1.0,87,0.00,,,0.06,,2013-10-06 06:21:00,
2013-10-06 00:42:00,26.0,23.0,30.46,North,360,3.0,6.0,87,0.00,,,0.06,,2013-10-06 06:42:00,
2013-10-06 00:52:00,26.0,23.0,30.46,North,360,3.0,6.0,87,0.00,,,0.06,,2013-10-06 06:52:00,
2013-10-06 01:11:00,27.0,23.0,30.46,SW,216,4.0,6.0,85,0.00,,,0.06,,2013-10-06 07:11:00,
2013-10-06 01:22:00,27.0,23.0,30.46,SW,217,1.0,4.0,85,0.00,,,0.06,,2013-10-06 07:22:00,
2013-10-06 01:42:00,27.0,23.0,30.45,SSW,196,4.0,7.0,85,0.00,,,0.06,,2013-10-06 07:42:00,
2013-10-06 01:52:00,27.0,22.0,30.45,South,190,3.0,8.0,82,0.00,,,0.06,,2013-10-06 07:52:00,
2013-10-06 02:11:00,27.0,22.0,30.45,SSW,211,4.0,8.0,81,0.00,,,0.06,,2013-10-06 08:11:00,
2013-10-06 02:21:00,27.0,22.0,30.45,SSW,210,2.0,5.0,80,0.00,,,0.06,,2013-10-06 08:21:00,
2013-10-06 02:42:00,27.0,21.0,30.45,SSW,195,4.0,7.0,79,0.00,,,0.06,,2013-10-06 08:42:00,
2013-10-06 02:52:00,27.0,20.0,30.44,South,190,2.0,6.0,75,0.00,,,0.06,,2013-10-06 08:52:00,
2013-10-06 03:11:00,28.0,21.0,30.44,SSE,147,0.0,2.0,75,0.00,,,0.06,,2013-10-06 09:11:00,
2013-10-06 03:22:00,28.0,21.0,30.44,SSE,147,0.0,2.0,75,0.00,,,0.06,,2013-10-06 09:22:00,
2013-10-06 03:43:00,27.0,21.0,30.43,SSE,165,0.0,3.0,78,0.00,,,0.06,,2013-10-06 09:43:00,
2013-10-06 03:53:00,27.0,21.0,30.43,SSW,207,2.0,5.0,79,0.00,,,0.06,,2013-10-06 09:53:00,
2013-10-06 04:13:00,26.0,20.0,30.43,SSW,208,0.0,3.0,79,0.00,,,0.06,,2013-10-06 10:13:00,
2013-10-06 04:23:00,26.0,21.0,30.44,SSW,208,0.0,0.0,81,0.00,,,0.06,,2013-10-06 10:23:00,
2013-10-06 04:42:00,26.0,21.0,30.44,SSW,208,0.0,2.0,82,0.00,,,0.06,,2013-10-06 10:42:00,
2013-10-06 04:53:00,25.0,21.0,30.44,SSW,208,0.0,3.0,84,0.00,,,0.06,,2013-10-06 10:53:00,
2013-10-06 05:11:00,25.0,21.0,30.44,SSW,212,0.0,1.0,84,0.00,,,0.06,,2013-10-06 11:11:00,
2013-10-06 05:21:00,24.0,20.0,30.44,SW,219,0.0,1.0,85,0.00,,,0.06,,2013-10-06 11:21:00,
2013-10-06 05:42:00,24.0,20.0,30.45,SW,219,1.0,3.0,86,0.00,,,0.06,,2013-10-06 11:42:00,
2013-10-06 05:52:00,24.0,20.0,30.45,SW,219,0.0,1.0,86,0.00,,,0.06,,2013-10-06 11:52:00,
2013-10-06 06:12:00,23.0,20.0,30.45,SW,219,0.0,1.0,87,0.00,,,0.06,,2013-10-06 12:12:00,
2013-10-06 06:22:00,23.0,20.0,30.45,SW,219,0.0,2.0,87,0.00,,,0.06,,2013-10-06 12:22:00,
2013-10-06 06:42:00,23.0,20.0,30.45,SW,219,0.0,0.0,87,0.00,,,0.06,,2013-10-06 12:42:00,
2013-10-06 06:52:00,23.0,20.0,30.45,SW,219,1.0,3.0,88,0.00,,,0.06,,2013-10-06 12:52:00,
2013-10-06 07:11:00,23.0,19.0,30.45,SW,223,0.0,5.0,84,0.00,,,0.06,,2013-10-06 13:11:00,
2013-10-06 07:21:00,23.0,19.0,30.45,SW,223,0.0,0.0,85,0.00,,,0.06,,2013-10-06 13:21:00,
2013-10-06 07:42:00,23.0,19.0,30.45,SW,223,0.0,0.0,86,0.00,,,0.06,,2013-10-06 13:42:00,
2013-10-06 07:52:00,23.0,19.0,30.45,SW,223,0.0,0.0,85,0.00,,,0.06,,2013-10-06 13:52:00,
2013-10-06 08:11:00,22.0,18.0,30.45,SW,223,0.0,0.0,86,0.00,,,0.06,,2013-10-06 14:11:00,
2013-10-06 08:22:00,22.0,19.0,30.45,SW,223,0.0,0.0,87,0.00,,,0.06,,2013-10-06 14:22:00,
2013-10-06 08:42:00,23.0,20.0,30.45,SW,223,1.0,3.0,89,0.00,,,0.06,,2013-10-06 14:42:00,
2013-10-06 08:52:00,24.0,21.0,30.45,SW,223,0.0,0.0,89,0.00,,,0.06,,2013-10-06 14:52:00,
2013-10-06 09:11:00,26.0,21.0,30.45,SW,223,0.0,0.0,81,0.00,,,0.06,,2013-10-06 15:11:00,
2013-10-06 09:22:00,29.0,22.0,30.46,SW,223,0.0,0.0,74,0.00,,,0.06,,2013-10-06 15:22:00,
2013-10-06 09:43:00,32.0,22.0,30.46,SE,143,0.0,3.0,65,0.00,,,0.06,,2013-10-06 15:43:00,
2013-10-06 09:53:00,34.0,22.0,30.46,SE,143,0.0,2.0,61,0.00,,,0.06,,2013-10-06 15:53:00,
2013-10-06 10:12:00,36.0,23.0,30.47,ESE,117,2.0,4.0,60,0.00,,,0.06,,2013-10-06 16:12:00,
2013-10-06 10:23:00,39.0,23.0,30.47,East,80,3.0,6.0,53,0.01,,,0.07,,2013-10-06 16:23:00,
2013-10-06 10:42:00,40.0,23.0,30.47,East,91,1.0,5.0,50,0.01,,,0.07,,2013-10-06 16:42:00,
2013-10-06 10:53:00,42.0,25.0,30.47,ESE,107,1.0,3.0,51,0.01,,,0.07,,2013-10-06 16:53:00,
2013-10-06 12:42:00,47.0,25.0,30.45,NE,44,4.0,8.0,42,0.00,,,0.04,,2013-10-06 18:42:00,
2013-10-06 13:11:00,48.0,26.0,30.45,NNE,33,5.0,9.0,42,0.00,,,0.04,,2013-10-06 19:11:00,
2013-10-06 13:22:00,49.0,27.0,30.45,North,351,4.0,11.0,43,0.00,,,0.04,,2013-10-06 19:22:00,
2013-10-06 13:42:00,50.0,27.0,30.44,NNE,15,5.0,9.0,40,0.00,,,0.03,,2013-10-06 19:42:00,
2013-10-06 13:52:00,51.0,27.0,30.43,NNE,22,4.0,9.0,39,0.00,,,0.03,,2013-10-06 19:52:00,
2013-10-06 14:11:00,51.0,25.0,30.43,NNW,346,7.0,9.0,36,0.00,,,0.03,,2013-10-06 20:11:00,
2013-10-06 14:22:00,51.0,25.0,30.43,WNW,299,4.0,9.0,36,0.00,,,0.03,,2013-10-06 20:22:00,
2013-10-06 14:42:00,52.0,27.0,30.42,NNW,346,3.0,8.0,37,0.00,,,0.02,,2013-10-06 20:42:00,
2013-10-06 14:52:00,52.0,25.0,30.42,NE,42,1.0,9.0,35,0.00,,,0.02,,2013-10-06 20:52:00,
2013-10-06 15:11:00,52.0,22.0,30.42,WNW,286,3.0,9.0,31,0.00,,,0.02,,2013-10-06 21:11:00,
2013-10-06 15:22:00,53.0,22.0,30.42,North,10,7.0,10.0,30,0.00,,,0.02,,2013-10-06 21:22:00,
2013-10-06 15:44:00,54.0,23.0,30.42,North,5,5.0,11.0,30,0.00,,,0.01,,2013-10-06 21:44:00,
2013-10-06 15:54:00,54.0,23.0,30.42,NNW,346,2.0,11.0,30,0.00,,,0.01,,2013-10-06 21:54:00,
2013-10-06 16:13:00,53.0,24.0,30.42,NW,304,5.0,10.0,32,0.00,,,0.01,,2013-10-06 22:13:00,
2013-10-06 16:24:00,54.0,25.0,30.41,North,360,3.0,9.0,32,0.00,,,0.01,,2013-10-06 22:24:00,
2013-10-06 16:42:00,54.0,25.0,30.41,NW,321,5.0,11.0,32,0.00,,,0.01,,2013-10-06 22:42:00,
2013-10-06 16:53:00,54.0,24.0,30.41,NW,311,6.0,9.0,31,0.00,,,0.01,,2013-10-06 22:53:00,
2013-10-06 17:12:00,54.0,25.0,30.41,North,360,5.0,9.0,32,0.00,,,0.01,,2013-10-06 23:12:00,
2013-10-06 17:22:00,55.0,26.0,30.41,NW,325,1.0,6.0,33,0.00,,,0.01,,2013-10-06 23:22:00,
2013-10-06 17:53:00,54.0,26.0,30.41,North,360,2.0,6.0,33,0.00,,,0.01,,2013-10-06 23:53:00,
2013-10-06 18:12:00,54.0,26.0,30.41,NNW,342,4.0,6.0,33,0.00,,,0.01,,2013-10-07 00:12:00,
2013-10-06 18:22:00,53.0,26.0,30.41,NNW,328,3.0,6.0,35,0.00,,,0.01,,2013-10-07 00:22:00,
2013-10-06 18:42:00,52.0,26.0,30.41,NNW,335,1.0,5.0,36,0.00,,,0.01,,2013-10-07 00:42:00,
2013-10-06 18:52:00,50.0,27.0,30.41,NNW,334,1.0,4.0,41,0.00,,,0.01,,2013-10-07 00:52:00,
2013-10-06 19:11:00,48.0,28.0,30.41,WNW,287,3.0,5.0,46,0.00,,,0.01,,2013-10-07 01:11:00,
2013-10-06 19:22:00,47.0,30.0,30.42,WNW,292,0.0,3.0,51,0.00,,,0.01,,2013-10-07 01:22:00,
2013-10-06 19:42:00,45.0,28.0,30.42,WNW,289,3.0,5.0,51,0.00,,,0.01,,2013-10-07 01:42:00,
2013-10-06 19:53:00,43.0,28.0,30.42,WNW,286,2.0,3.0,54,0.00,,,0.01,,2013-10-07 01:53:00,
2013-10-06 20:12:00,42.0,28.0,30.42,WNW,286,0.0,3.0,57,0.00,,,0.01,,2013-10-07 02:12:00,
2013-10-06 20:22:00,41.0,28.0,30.42,WNW,286,0.0,0.0,60,0.00,,,0.01,,2013-10-07 02:22:00,
2013-10-06 20:42:00,39.0,27.0,30.42,West,275,1.0,4.0,61,0.00,,,0.01,,2013-10-07 02:42:00,
2013-10-06 20:53:00,38.0,27.0,30.42,WSW,251,2.0,4.0,63,0.00,,,0.01,,2013-10-07 02:53:00,
2013-10-06 21:12:00,37.0,26.0,30.42,WSW,252,2.0,4.0,65,0.00,,,0.01,,2013-10-07 03:12:00,
2013-10-06 21:22:00,37.0,27.0,30.42,WSW,252,1.0,3.0,66,0.00,,,0.01,,2013-10-07 03:22:00,
2013-10-06 21:44:00,36.0,26.0,30.42,WSW,252,1.0,4.0,67,0.00,,,0.01,,2013-10-07 03:44:00,
2013-10-06 21:54:00,36.0,26.0,30.43,SW,218,3.0,6.0,66,0.00,,,0.01,,2013-10-07 03:54:00,
2013-10-06 22:13:00,37.0,27.0,30.42,North,360,4.0,8.0,66,0.00,,,0.01,,2013-10-07 04:13:00,
2013-10-06 22:24:00,38.0,26.0,30.43,SSW,213,4.0,7.0,61,0.00,,,0.01,,2013-10-07 04:24:00,
2013-10-06 22:44:00,38.0,25.0,30.42,SSW,211,3.0,6.0,59,0.00,,,0.01,,2013-10-07 04:44:00,
2013-10-06 22:53:00,38.0,26.0,30.42,SSW,210,3.0,7.0,62,0.00,,,0.01,,2013-10-07 04:53:00,
2013-10-06 23:13:00,38.0,25.0,30.42,North,360,4.0,7.0,60,0.00,,,0.01,,2013-10-07 05:13:00,
2013-10-06 23:22:00,38.0,25.0,30.42,SSW,209,2.0,6.0,58,0.00,,,0.01,,2013-10-07 05:22:00,
2013-10-06 23:43:00,38.0,25.0,30.42,SSW,196,4.0,6.0,59,0.00,,,0.01,,2013-10-07 05:43:00,
2013-10-06 23:52:00,37.0,25.0,30.42,SSW,194,1.0,6.0,62,0.00,,,0.01,,2013-10-07 05:52:00,